Airfield :
LOGIN :

Register | Disclaimer

   EN    FR    IT 

 










Legend :    VFR   Marginal VFR   IFR   Intensive IFR   Very Intensive IFR
Visi :
Ceiling :
>= 8 km
>= 3000ft
5 to 8 km
1000 to 3000 ft
1500m to 5 km
500 to 1000 ft
800 to 1500m
200 to 500 ft
< 800m
< 200 ft
Symbols :   Thunderstorms  Fog  Heavy snow  Heavy precipitations  Wind > 20 kt
SIGMETs :     Misc.  Thunderstorms  Icing  Turbulence  Mountain Waves  Volcanic Ashes






- Airport Elevation : 1460 ft


LSMA - Alpnach

CURRENT METAR :
  • 182020Z AUTO VRB02KT 8000NDV FEW023 BKN042 OVC048 06/04 Q1020 RMK

EXPIRED METARs :
  • 181950Z AUTO 16002KT 9999NDV -SHRA BKN033 BKN044 OVC052 06/05 Q1020 RMK
  • 181920Z AUTO VRB02KT 9999NDV -SHRA BKN031 OVC035 06/04 Q1020 RMK
  • 181850Z AUTO 00000KT 9000NDV SCT033 BKN053 BKN079 06/04 Q1020 RMK
  • 181820Z AUTO VRB02KT 9000NDV FEW035 BKN041 OVC052 06/05 Q1019 RMK
  • 181750Z AUTO 00000KT 9999NDV -SHRA BKN040 BKN045 OVC067 06/04 Q1019 RMK
  • 181720Z AUTO VRB02KT 9999NDV -SHRA FEW040 BKN045 OVC055 07/04 Q1019 RMK

Expired Forecast.



MET'MAP, your aeronautical weather chart ! - Copyright ORBIFLY December 2007 - Disclaimer

ORBIFLY MET'MAP TEAM :

Programming & Development : Alexandra Zaïnal
Concept & original design : Baudouin d'Aumeries
Assistance for programming : Marc-Olivier Méhu
Technical & hardware support : Manuel Goepfert

Contact : metmap@orbifly.com




SOURCES & CREDITS :

   NOAA